sensor_id;sensor_type;location;lat;lon;timestamp;P1;durP1;ratioP1;P2;durP2;ratioP2
68757;SDS011;55747;51.998;4.466;2023-03-31T00:01:33;17.42;;;3.72;;
68757;SDS011;55747;51.998;4.466;2023-03-31T00:03:59;16.70;;;3.22;;
68757;SDS011;55747;51.998;4.466;2023-03-31T00:06:35;20.08;;;2.95;;
68757;SDS011;55747;51.998;4.466;2023-03-31T00:09:06;14.23;;;2.95;;
68757;SDS011;55747;51.998;4.466;2023-03-31T00:11:33;16.42;;;2.97;;
68757;SDS011;55747;51.998;4.466;2023-03-31T00:13:59;14.50;;;2.70;;
68757;SDS011;55747;51.998;4.466;2023-03-31T00:16:24;12.80;;;2.92;;
68757;SDS011;55747;51.998;4.466;2023-03-31T00:18:50;16.38;;;3.03;;
68757;SDS011;55747;51.998;4.466;2023-03-31T00:21:18;15.77;;;2.92;;
68757;SDS011;55747;51.998;4.466;2023-03-31T00:23:55;15.52;;;2.80;;
68757;SDS011;55747;51.998;4.466;2023-03-31T00:26:23;15.88;;;2.63;;
68757;SDS011;55747;51.998;4.466;2023-03-31T00:28:50;10.48;;;2.45;;
68757;SDS011;55747;51.998;4.466;2023-03-31T00:31:16;14.57;;;2.88;;
68757;SDS011;55747;51.998;4.466;2023-03-31T00:33:42;15.27;;;2.70;;
68757;SDS011;55747;51.998;4.466;2023-03-31T00:36:07;12.43;;;2.80;;
68757;SDS011;55747;51.998;4.466;2023-03-31T00:38:32;12.88;;;2.92;;
68757;SDS011;55747;51.998;4.466;2023-03-31T00:40:58;13.77;;;3.38;;
68757;SDS011;55747;51.998;4.466;2023-03-31T00:48:39;15.93;;;3.55;;
68757;SDS011;55747;51.998;4.466;2023-03-31T00:51:17;15.57;;;2.95;;
68757;SDS011;55747;51.998;4.466;2023-03-31T00:53:47;14.07;;;2.63;;
68757;SDS011;55747;51.998;4.466;2023-03-31T00:56:19;11.25;;;3.40;;
68757;SDS011;55747;51.998;4.466;2023-03-31T00:58:45;12.82;;;3.03;;
68757;SDS011;55747;51.998;4.466;2023-03-31T01:01:12;17.40;;;3.13;;
68757;SDS011;55747;51.998;4.466;2023-03-31T01:03:41;13.45;;;2.80;;
68757;SDS011;55747;51.998;4.466;2023-03-31T01:06:10;12.02;;;2.78;;
68757;SDS011;55747;51.998;4.466;2023-03-31T01:08:38;14.20;;;2.80;;
68757;SDS011;55747;51.998;4.466;2023-03-31T01:11:06;12.35;;;2.58;;
68757;SDS011;55747;51.998;4.466;2023-03-31T01:13:35;17.60;;;3.40;;
68757;SDS011;55747;51.998;4.466;2023-03-31T01:16:03;13.52;;;2.75;;
68757;SDS011;55747;51.998;4.466;2023-03-31T01:18:28;11.68;;;2.72;;
68757;SDS011;55747;51.998;4.466;2023-03-31T01:43:52;19.90;;;3.50;;
68757;SDS011;55747;51.998;4.466;2023-03-31T01:46:31;14.20;;;3.25;;
68757;SDS011;55747;51.998;4.466;2023-03-31T01:49:17;18.35;;;3.65;;
68757;SDS011;55747;51.998;4.466;2023-03-31T01:51:59;15.25;;;3.63;;
68757;SDS011;55747;51.998;4.466;2023-03-31T01:57:22;20.25;;;3.88;;
68757;SDS011;55747;51.998;4.466;2023-03-31T02:02:36;18.85;;;4.22;;
68757;SDS011;55747;51.998;4.466;2023-03-31T02:05:17;20.55;;;4.60;;
68757;SDS011;55747;51.998;4.466;2023-03-31T02:07:47;17.20;;;3.55;;
68757;SDS011;55747;51.998;4.466;2023-03-31T02:10:20;20.15;;;4.15;;
68757;SDS011;55747;51.998;4.466;2023-03-31T02:12:48;20.50;;;4.30;;
68757;SDS011;55747;51.998;4.466;2023-03-31T02:15:17;20.23;;;4.28;;
68757;SDS011;55747;51.998;4.466;2023-03-31T02:17:48;17.05;;;3.42;;
68757;SDS011;55747;51.998;4.466;2023-03-31T02:20:18;19.02;;;4.30;;
68757;SDS011;55747;51.998;4.466;2023-03-31T02:22:47;20.08;;;4.05;;
68757;SDS011;55747;51.998;4.466;2023-03-31T02:25:17;18.13;;;4.25;;
68757;SDS011;55747;51.998;4.466;2023-03-31T02:27:48;21.77;;;3.92;;
68757;SDS011;55747;51.998;4.466;2023-03-31T02:30:26;18.65;;;4.22;;
68757;SDS011;55747;51.998;4.466;2023-03-31T02:32:58;15.27;;;4.50;;
68757;SDS011;55747;51.998;4.466;2023-03-31T02:35:23;18.23;;;4.65;;
68757;SDS011;55747;51.998;4.466;2023-03-31T02:37:49;18.20;;;4.97;;
68757;SDS011;55747;51.998;4.466;2023-03-31T02:40:19;16.73;;;5.35;;
68757;SDS011;55747;51.998;4.466;2023-03-31T02:42:46;14.93;;;4.85;;
68757;SDS011;55747;51.998;4.466;2023-03-31T02:54:08;18.02;;;4.75;;
68757;SDS011;55747;51.998;4.466;2023-03-31T03:02:16;14.02;;;3.65;;
68757;SDS011;55747;51.998;4.466;2023-03-31T03:07:36;15.55;;;2.90;;
68757;SDS011;55747;51.998;4.466;2023-03-31T03:12:55;11.15;;;2.53;;
68757;SDS011;55747;51.998;4.466;2023-03-31T03:15:27;11.23;;;2.10;;
68757;SDS011;55747;51.998;4.466;2023-03-31T03:17:58;9.13;;;2.35;;
68757;SDS011;55747;51.998;4.466;2023-03-31T03:20:23;12.40;;;1.98;;
68757;SDS011;55747;51.998;4.466;2023-03-31T03:22:49;6.75;;;1.60;;
68757;SDS011;55747;51.998;4.466;2023-03-31T03:25:14;12.07;;;1.98;;
68757;SDS011;55747;51.998;4.466;2023-03-31T03:27:41;11.98;;;2.35;;
68757;SDS011;55747;51.998;4.466;2023-03-31T03:30:07;7.18;;;1.55;;
68757;SDS011;55747;51.998;4.466;2023-03-31T03:32:34;11.00;;;1.75;;
68757;SDS011;55747;51.998;4.466;2023-03-31T03:35:00;6.03;;;1.85;;
68757;SDS011;55747;51.998;4.466;2023-03-31T03:37:27;11.57;;;1.90;;
68757;SDS011;55747;51.998;4.466;2023-03-31T03:39:53;12.38;;;2.40;;
68757;SDS011;55747;51.998;4.466;2023-03-31T03:42:18;10.00;;;2.22;;
68757;SDS011;55747;51.998;4.466;2023-03-31T03:44:44;12.50;;;3.10;;
68757;SDS011;55747;51.998;4.466;2023-03-31T03:47:09;7.82;;;2.72;;
68757;SDS011;55747;51.998;4.466;2023-03-31T03:49:34;7.57;;;2.80;;
68757;SDS011;55747;51.998;4.466;2023-03-31T03:52:00;11.52;;;3.35;;
68757;SDS011;55747;51.998;4.466;2023-03-31T03:54:25;14.77;;;3.88;;
68757;SDS011;55747;51.998;4.466;2023-03-31T03:56:50;12.00;;;4.22;;
68757;SDS011;55747;51.998;4.466;2023-03-31T03:59:16;12.68;;;4.50;;
68757;SDS011;55747;51.998;4.466;2023-03-31T04:01:41;13.82;;;5.65;;
68757;SDS011;55747;51.998;4.466;2023-03-31T04:04:06;19.48;;;7.07;;
68757;SDS011;55747;51.998;4.466;2023-03-31T04:06:32;15.43;;;6.22;;
68757;SDS011;55747;51.998;4.466;2023-03-31T04:08:57;13.75;;;6.20;;
68757;SDS011;55747;51.998;4.466;2023-03-31T04:11:23;12.25;;;5.57;;
68757;SDS011;55747;51.998;4.466;2023-03-31T04:13:48;18.13;;;5.60;;
68757;SDS011;55747;51.998;4.466;2023-03-31T04:16:14;16.17;;;6.00;;
68757;SDS011;55747;51.998;4.466;2023-03-31T04:18:40;17.38;;;4.93;;
68757;SDS011;55747;51.998;4.466;2023-03-31T04:21:07;13.07;;;4.88;;
68757;SDS011;55747;51.998;4.466;2023-03-31T04:23:36;14.23;;;4.90;;
68757;SDS011;55747;51.998;4.466;2023-03-31T04:26:06;16.23;;;4.75;;
68757;SDS011;55747;51.998;4.466;2023-03-31T04:28:36;16.15;;;4.47;;
68757;SDS011;55747;51.998;4.466;2023-03-31T04:31:03;17.60;;;4.95;;
68757;SDS011;55747;51.998;4.466;2023-03-31T04:33:30;11.90;;;3.78;;
68757;SDS011;55747;51.998;4.466;2023-03-31T04:36:02;14.07;;;4.00;;
68757;SDS011;55747;51.998;4.466;2023-03-31T04:38:31;12.45;;;4.05;;
68757;SDS011;55747;51.998;4.466;2023-03-31T04:40:57;14.93;;;3.83;;
68757;SDS011;55747;51.998;4.466;2023-03-31T04:43:23;16.08;;;3.47;;
68757;SDS011;55747;51.998;4.466;2023-03-31T04:45:48;11.27;;;3.97;;
68757;SDS011;55747;51.998;4.466;2023-03-31T04:48:14;14.63;;;3.80;;
68757;SDS011;55747;51.998;4.466;2023-03-31T04:50:39;11.77;;;3.67;;
68757;SDS011;55747;51.998;4.466;2023-03-31T04:53:05;13.73;;;3.67;;
68757;SDS011;55747;51.998;4.466;2023-03-31T04:55:31;10.43;;;3.38;;
68757;SDS011;55747;51.998;4.466;2023-03-31T04:57:56;10.25;;;3.67;;
68757;SDS011;55747;51.998;4.466;2023-03-31T05:00:22;8.63;;;3.15;;
68757;SDS011;55747;51.998;4.466;2023-03-31T05:02:48;8.63;;;3.30;;
68757;SDS011;55747;51.998;4.466;2023-03-31T05:05:13;12.15;;;3.60;;
68757;SDS011;55747;51.998;4.466;2023-03-31T05:07:39;11.75;;;3.08;;
68757;SDS011;55747;51.998;4.466;2023-03-31T05:10:05;6.80;;;2.80;;
68757;SDS011;55747;51.998;4.466;2023-03-31T05:12:37;5.68;;;2.33;;
68757;SDS011;55747;51.998;4.466;2023-03-31T05:15:03;11.55;;;2.58;;
68757;SDS011;55747;51.998;4.466;2023-03-31T05:17:32;8.10;;;2.40;;
68757;SDS011;55747;51.998;4.466;2023-03-31T05:19:59;6.13;;;2.35;;
68757;SDS011;55747;51.998;4.466;2023-03-31T05:22:25;7.68;;;2.35;;
68757;SDS011;55747;51.998;4.466;2023-03-31T05:24:51;7.68;;;2.40;;
68757;SDS011;55747;51.998;4.466;2023-03-31T05:27:16;7.47;;;2.15;;
68757;SDS011;55747;51.998;4.466;2023-03-31T05:29:42;6.80;;;2.10;;
68757;SDS011;55747;51.998;4.466;2023-03-31T05:32:07;4.00;;;1.75;;
68757;SDS011;55747;51.998;4.466;2023-03-31T05:34:33;6.55;;;1.90;;
68757;SDS011;55747;51.998;4.466;2023-03-31T05:36:58;5.82;;;1.85;;
68757;SDS011;55747;51.998;4.466;2023-03-31T05:39:24;4.22;;;1.98;;
68757;SDS011;55747;51.998;4.466;2023-03-31T05:41:49;3.92;;;1.67;;
68757;SDS011;55747;51.998;4.466;2023-03-31T05:44:15;4.43;;;1.50;;
68757;SDS011;55747;51.998;4.466;2023-03-31T05:46:40;6.03;;;1.40;;
68757;SDS011;55747;51.998;4.466;2023-03-31T05:49:06;4.13;;;1.60;;
68757;SDS011;55747;51.998;4.466;2023-03-31T05:51:32;4.18;;;1.35;;
68757;SDS011;55747;51.998;4.466;2023-03-31T05:53:58;4.85;;;1.60;;
68757;SDS011;55747;51.998;4.466;2023-03-31T05:56:23;2.92;;;1.30;;
68757;SDS011;55747;51.998;4.466;2023-03-31T05:58:51;3.97;;;1.60;;
68757;SDS011;55747;51.998;4.466;2023-03-31T06:01:16;2.25;;;1.17;;
68757;SDS011;55747;51.998;4.466;2023-03-31T06:03:46;4.93;;;1.38;;
68757;SDS011;55747;51.998;4.466;2023-03-31T06:06:12;3.85;;;1.30;;
68757;SDS011;55747;51.998;4.466;2023-03-31T06:08:38;5.60;;;1.35;;
68757;SDS011;55747;51.998;4.466;2023-03-31T06:11:09;4.20;;;1.20;;
68757;SDS011;55747;51.998;4.466;2023-03-31T06:13:36;5.25;;;1.60;;
68757;SDS011;55747;51.998;4.466;2023-03-31T06:16:02;6.63;;;1.55;;
68757;SDS011;55747;51.998;4.466;2023-03-31T06:18:30;5.25;;;1.60;;
68757;SDS011;55747;51.998;4.466;2023-03-31T06:20:56;6.88;;;1.50;;
68757;SDS011;55747;51.998;4.466;2023-03-31T06:23:22;6.45;;;1.65;;
68757;SDS011;55747;51.998;4.466;2023-03-31T06:25:48;6.00;;;1.80;;
68757;SDS011;55747;51.998;4.466;2023-03-31T06:28:14;4.75;;;1.70;;
68757;SDS011;55747;51.998;4.466;2023-03-31T06:30:39;6.68;;;1.77;;
68757;SDS011;55747;51.998;4.466;2023-03-31T06:33:05;3.72;;;2.00;;
68757;SDS011;55747;51.998;4.466;2023-03-31T06:35:31;5.82;;;1.90;;
68757;SDS011;55747;51.998;4.466;2023-03-31T06:37:57;6.38;;;2.10;;
68757;SDS011;55747;51.998;4.466;2023-03-31T06:40:22;6.20;;;1.98;;
68757;SDS011;55747;51.998;4.466;2023-03-31T06:42:48;7.63;;;2.28;;
68757;SDS011;55747;51.998;4.466;2023-03-31T06:45:13;4.80;;;2.42;;
68757;SDS011;55747;51.998;4.466;2023-03-31T06:47:39;6.45;;;2.55;;
68757;SDS011;55747;51.998;4.466;2023-03-31T06:50:06;8.75;;;2.47;;
68757;SDS011;55747;51.998;4.466;2023-03-31T06:52:33;8.25;;;2.75;;
68757;SDS011;55747;51.998;4.466;2023-03-31T06:54:59;8.10;;;2.72;;
68757;SDS011;55747;51.998;4.466;2023-03-31T06:57:25;7.82;;;3.08;;
68757;SDS011;55747;51.998;4.466;2023-03-31T06:59:51;6.95;;;3.10;;
68757;SDS011;55747;51.998;4.466;2023-03-31T07:02:16;10.95;;;3.15;;
68757;SDS011;55747;51.998;4.466;2023-03-31T07:04:41;10.45;;;4.00;;
68757;SDS011;55747;51.998;4.466;2023-03-31T07:07:07;11.87;;;3.77;;
68757;SDS011;55747;51.998;4.466;2023-03-31T07:09:32;5.20;;;3.70;;
68757;SDS011;55747;51.998;4.466;2023-03-31T07:11:57;11.52;;;4.75;;
68757;SDS011;55747;51.998;4.466;2023-03-31T07:14:23;8.83;;;4.17;;
68757;SDS011;55747;51.998;4.466;2023-03-31T07:16:48;10.90;;;4.88;;
68757;SDS011;55747;51.998;4.466;2023-03-31T07:19:14;10.63;;;4.57;;
68757;SDS011;55747;51.998;4.466;2023-03-31T07:21:40;12.73;;;5.13;;
68757;SDS011;55747;51.998;4.466;2023-03-31T07:24:05;8.87;;;4.83;;
68757;SDS011;55747;51.998;4.466;2023-03-31T07:26:30;12.75;;;5.10;;
68757;SDS011;55747;51.998;4.466;2023-03-31T07:28:56;11.20;;;4.78;;
68757;SDS011;55747;51.998;4.466;2023-03-31T07:31:21;11.40;;;5.25;;
68757;SDS011;55747;51.998;4.466;2023-03-31T07:33:47;16.35;;;5.10;;
68757;SDS011;55747;51.998;4.466;2023-03-31T07:36:13;13.68;;;4.68;;
68757;SDS011;55747;51.998;4.466;2023-03-31T07:38:39;13.77;;;4.97;;
68757;SDS011;55747;51.998;4.466;2023-03-31T07:41:09;15.32;;;4.45;;
68757;SDS011;55747;51.998;4.466;2023-03-31T07:43:36;13.85;;;4.50;;
68757;SDS011;55747;51.998;4.466;2023-03-31T07:46:01;13.27;;;4.45;;
68757;SDS011;55747;51.998;4.466;2023-03-31T07:48:26;13.57;;;3.50;;
68757;SDS011;55747;51.998;4.466;2023-03-31T07:50:52;17.92;;;4.57;;
68757;SDS011;55747;51.998;4.466;2023-03-31T07:53:18;15.98;;;3.30;;
68757;SDS011;55747;51.998;4.466;2023-03-31T07:55:43;20.23;;;3.72;;
68757;SDS011;55747;51.998;4.466;2023-03-31T07:58:09;14.43;;;3.85;;
68757;SDS011;55747;51.998;4.466;2023-03-31T08:00:35;15.60;;;3.30;;
68757;SDS011;55747;51.998;4.466;2023-03-31T08:03:01;13.82;;;3.25;;
68757;SDS011;55747;51.998;4.466;2023-03-31T08:05:26;17.83;;;3.50;;
68757;SDS011;55747;51.998;4.466;2023-03-31T08:07:51;14.18;;;3.17;;
68757;SDS011;55747;51.998;4.466;2023-03-31T08:10:18;12.43;;;3.03;;
68757;SDS011;55747;51.998;4.466;2023-03-31T08:12:47;12.45;;;3.40;;
68757;SDS011;55747;51.998;4.466;2023-03-31T08:15:12;13.13;;;3.40;;
68757;SDS011;55747;51.998;4.466;2023-03-31T08:17:38;11.40;;;3.72;;
68757;SDS011;55747;51.998;4.466;2023-03-31T08:20:04;15.38;;;3.67;;
68757;SDS011;55747;51.998;4.466;2023-03-31T08:22:34;15.02;;;4.10;;
68757;SDS011;55747;51.998;4.466;2023-03-31T08:25:00;14.30;;;4.00;;
68757;SDS011;55747;51.998;4.466;2023-03-31T08:27:26;13.88;;;4.28;;
68757;SDS011;55747;51.998;4.466;2023-03-31T08:29:51;13.88;;;4.20;;
68757;SDS011;55747;51.998;4.466;2023-03-31T08:32:16;16.08;;;5.10;;
68757;SDS011;55747;51.998;4.466;2023-03-31T08:34:42;19.33;;;5.70;;
68757;SDS011;55747;51.998;4.466;2023-03-31T08:37:08;20.05;;;5.35;;
68757;SDS011;55747;51.998;4.466;2023-03-31T08:39:34;21.50;;;5.70;;
68757;SDS011;55747;51.998;4.466;2023-03-31T08:42:20;23.75;;;5.03;;
68757;SDS011;55747;51.998;4.466;2023-03-31T08:45:05;22.70;;;5.13;;
68757;SDS011;55747;51.998;4.466;2023-03-31T08:47:35;19.55;;;4.05;;
68757;SDS011;55747;51.998;4.466;2023-03-31T08:50:12;13.68;;;3.75;;
68757;SDS011;55747;51.998;4.466;2023-03-31T08:52:41;22.90;;;4.43;;
68757;SDS011;55747;51.998;4.466;2023-03-31T08:55:19;21.30;;;3.90;;
68757;SDS011;55747;51.998;4.466;2023-03-31T08:58:00;18.05;;;4.00;;
68757;SDS011;55747;51.998;4.466;2023-03-31T09:00:36;17.88;;;4.28;;
68757;SDS011;55747;51.998;4.466;2023-03-31T09:03:14;24.00;;;3.70;;
68757;SDS011;55747;51.998;4.466;2023-03-31T09:05:50;18.65;;;3.22;;
68757;SDS011;55747;51.998;4.466;2023-03-31T09:10:58;18.85;;;3.03;;
68757;SDS011;55747;51.998;4.466;2023-03-31T09:18:52;20.13;;;3.60;;
68757;SDS011;55747;51.998;4.466;2023-03-31T09:21:37;13.85;;;3.63;;
68757;SDS011;55747;51.998;4.466;2023-03-31T09:24:16;25.00;;;4.10;;
68757;SDS011;55747;51.998;4.466;2023-03-31T09:27:20;20.98;;;4.28;;
68757;SDS011;55747;51.998;4.466;2023-03-31T09:32:17;19.60;;;3.85;;
68757;SDS011;55747;51.998;4.466;2023-03-31T09:34:44;16.45;;;3.80;;
68757;SDS011;55747;51.998;4.466;2023-03-31T09:37:11;19.60;;;3.53;;
68757;SDS011;55747;51.998;4.466;2023-03-31T09:39:38;18.48;;;3.53;;
68757;SDS011;55747;51.998;4.466;2023-03-31T09:42:04;18.27;;;4.57;;
68757;SDS011;55747;51.998;4.466;2023-03-31T09:44:35;18.83;;;3.35;;
68757;SDS011;55747;51.998;4.466;2023-03-31T09:47:08;17.90;;;3.65;;
68757;SDS011;55747;51.998;4.466;2023-03-31T09:49:38;18.10;;;3.92;;
68757;SDS011;55747;51.998;4.466;2023-03-31T09:52:19;17.15;;;2.97;;
68757;SDS011;55747;51.998;4.466;2023-03-31T09:54:52;16.33;;;3.40;;
68757;SDS011;55747;51.998;4.466;2023-03-31T10:00:00;22.13;;;3.45;;
68757;SDS011;55747;51.998;4.466;2023-03-31T10:02:42;18.25;;;3.28;;
68757;SDS011;55747;51.998;4.466;2023-03-31T10:05:23;19.92;;;3.38;;
68757;SDS011;55747;51.998;4.466;2023-03-31T10:07:49;18.85;;;2.97;;
68757;SDS011;55747;51.998;4.466;2023-03-31T10:10:22;16.95;;;3.20;;
68757;SDS011;55747;51.998;4.466;2023-03-31T10:12:56;15.38;;;2.80;;
68757;SDS011;55747;51.998;4.466;2023-03-31T10:15:25;18.15;;;3.00;;
68757;SDS011;55747;51.998;4.466;2023-03-31T10:17:51;16.73;;;3.08;;
68757;SDS011;55747;51.998;4.466;2023-03-31T10:20:29;15.85;;;3.22;;
68757;SDS011;55747;51.998;4.466;2023-03-31T10:23:02;18.40;;;3.03;;
68757;SDS011;55747;51.998;4.466;2023-03-31T10:25:40;15.57;;;2.78;;
68757;SDS011;55747;51.998;4.466;2023-03-31T10:28:09;17.67;;;3.67;;
68757;SDS011;55747;51.998;4.466;2023-03-31T10:30:39;16.95;;;2.80;;
68757;SDS011;55747;51.998;4.466;2023-03-31T10:33:09;15.98;;;3.08;;
68757;SDS011;55747;51.998;4.466;2023-03-31T10:35:40;10.20;;;2.30;;
68757;SDS011;55747;51.998;4.466;2023-03-31T10:38:15;13.88;;;2.60;;
68757;SDS011;55747;51.998;4.466;2023-03-31T10:40:49;15.48;;;2.92;;
68757;SDS011;55747;51.998;4.466;2023-03-31T10:43:20;15.48;;;3.03;;
68757;SDS011;55747;51.998;4.466;2023-03-31T10:46:09;18.23;;;2.80;;
68757;SDS011;55747;51.998;4.466;2023-03-31T10:48:37;12.25;;;2.70;;
68757;SDS011;55747;51.998;4.466;2023-03-31T10:53:40;16.73;;;2.53;;
68757;SDS011;55747;51.998;4.466;2023-03-31T10:56:25;14.90;;;2.85;;
68757;SDS011;55747;51.998;4.466;2023-03-31T10:59:23;14.68;;;2.60;;
68757;SDS011;55747;51.998;4.466;2023-03-31T11:07:03;18.33;;;3.28;;
68757;SDS011;55747;51.998;4.466;2023-03-31T11:24:29;14.95;;;2.70;;
68757;SDS011;55747;51.998;4.466;2023-03-31T11:38:17;12.02;;;1.98;;
68757;SDS011;55747;51.998;4.466;2023-03-31T11:41:04;11.18;;;1.70;;
68757;SDS011;55747;51.998;4.466;2023-03-31T11:48:59;5.32;;;1.33;;
68757;SDS011;55747;51.998;4.466;2023-03-31T11:51:49;6.45;;;1.67;;
68757;SDS011;55747;51.998;4.466;2023-03-31T12:00:34;8.68;;;1.83;;
68757;SDS011;55747;51.998;4.466;2023-03-31T12:06:39;7.68;;;1.58;;
68757;SDS011;55747;51.998;4.466;2023-03-31T12:09:30;10.07;;;1.80;;
68757;SDS011;55747;51.998;4.466;2023-03-31T12:12:07;8.85;;;1.90;;
68757;SDS011;55747;51.998;4.466;2023-03-31T12:15:05;11.02;;;2.20;;
68757;SDS011;55747;51.998;4.466;2023-03-31T12:17:53;12.30;;;2.00;;
68757;SDS011;55747;51.998;4.466;2023-03-31T12:20:25;13.00;;;2.28;;
68757;SDS011;55747;51.998;4.466;2023-03-31T12:22:55;14.85;;;2.28;;
68757;SDS011;55747;51.998;4.466;2023-03-31T12:25:23;11.63;;;2.45;;
68757;SDS011;55747;51.998;4.466;2023-03-31T12:27:52;12.13;;;2.72;;
68757;SDS011;55747;51.998;4.466;2023-03-31T12:30:34;11.68;;;2.25;;
68757;SDS011;55747;51.998;4.466;2023-03-31T12:33:09;11.90;;;2.92;;
68757;SDS011;55747;51.998;4.466;2023-03-31T12:38:29;13.00;;;3.60;;
68757;SDS011;55747;51.998;4.466;2023-03-31T12:49:47;12.88;;;2.63;;
68757;SDS011;55747;51.998;4.466;2023-03-31T12:55:53;10.20;;;2.58;;
68757;SDS011;55747;51.998;4.466;2023-03-31T13:05:59;8.00;;;2.28;;
68757;SDS011;55747;51.998;4.466;2023-03-31T13:11:17;11.10;;;2.45;;
68757;SDS011;55747;51.998;4.466;2023-03-31T13:13:57;10.88;;;1.80;;
68757;SDS011;55747;51.998;4.466;2023-03-31T13:16:41;9.68;;;2.03;;
68757;SDS011;55747;51.998;4.466;2023-03-31T13:19:09;7.47;;;2.10;;
68757;SDS011;55747;51.998;4.466;2023-03-31T13:21:51;8.85;;;2.20;;
68757;SDS011;55747;51.998;4.466;2023-03-31T13:24:20;8.82;;;2.50;;
68757;SDS011;55747;51.998;4.466;2023-03-31T13:26:47;5.70;;;1.90;;
68757;SDS011;55747;51.998;4.466;2023-03-31T13:37:45;8.27;;;1.60;;
68757;SDS011;55747;51.998;4.466;2023-03-31T13:43:42;5.80;;;1.85;;
68757;SDS011;55747;51.998;4.466;2023-03-31T13:49:32;7.45;;;1.88;;
68757;SDS011;55747;51.998;4.466;2023-03-31T13:52:02;6.43;;;2.53;;
68757;SDS011;55747;51.998;4.466;2023-03-31T14:13:57;9.57;;;2.20;;
68757;SDS011;55747;51.998;4.466;2023-03-31T14:16:35;8.50;;;1.95;;
68757;SDS011;55747;51.998;4.466;2023-03-31T14:19:08;4.00;;;1.60;;
68757;SDS011;55747;51.998;4.466;2023-03-31T14:22:15;7.60;;;2.55;;
68757;SDS011;55747;51.998;4.466;2023-03-31T14:30:25;8.68;;;1.60;;
68757;SDS011;55747;51.998;4.466;2023-03-31T14:38:39;5.47;;;2.03;;
68757;SDS011;55747;51.998;4.466;2023-03-31T14:41:05;6.47;;;2.10;;
68757;SDS011;55747;51.998;4.466;2023-03-31T14:43:32;8.75;;;2.47;;
68757;SDS011;55747;51.998;4.466;2023-03-31T14:48:28;8.52;;;2.70;;
68757;SDS011;55747;51.998;4.466;2023-03-31T14:50:57;8.18;;;2.63;;
68757;SDS011;55747;51.998;4.466;2023-03-31T14:53:25;8.38;;;2.65;;
68757;SDS011;55747;51.998;4.466;2023-03-31T14:55:54;8.23;;;2.80;;
68757;SDS011;55747;51.998;4.466;2023-03-31T14:58:26;9.65;;;2.58;;
68757;SDS011;55747;51.998;4.466;2023-03-31T15:00:58;9.45;;;2.78;;
68757;SDS011;55747;51.998;4.466;2023-03-31T15:03:26;8.23;;;2.30;;
68757;SDS011;55747;51.998;4.466;2023-03-31T15:05:54;8.70;;;2.25;;
68757;SDS011;55747;51.998;4.466;2023-03-31T15:08:22;9.43;;;2.42;;
68757;SDS011;55747;51.998;4.466;2023-03-31T15:10:50;9.55;;;2.38;;
68757;SDS011;55747;51.998;4.466;2023-03-31T15:13:18;6.78;;;2.30;;
68757;SDS011;55747;51.998;4.466;2023-03-31T15:18:14;6.63;;;2.20;;
68757;SDS011;55747;51.998;4.466;2023-03-31T15:20:41;7.38;;;2.28;;
68757;SDS011;55747;51.998;4.466;2023-03-31T15:23:23;7.38;;;2.33;;
68757;SDS011;55747;51.998;4.466;2023-03-31T15:26:01;9.50;;;2.60;;
68757;SDS011;55747;51.998;4.466;2023-03-31T15:28:34;8.93;;;2.15;;
68757;SDS011;55747;51.998;4.466;2023-03-31T15:31:06;7.63;;;2.15;;
68757;SDS011;55747;51.998;4.466;2023-03-31T15:33:33;10.80;;;2.03;;
68757;SDS011;55747;51.998;4.466;2023-03-31T15:36:05;6.78;;;2.30;;
68757;SDS011;55747;51.998;4.466;2023-03-31T15:38:32;5.95;;;2.58;;
68757;SDS011;55747;51.998;4.466;2023-03-31T15:40:57;8.68;;;2.58;;
68757;SDS011;55747;51.998;4.466;2023-03-31T15:43:28;5.28;;;2.40;;
68757;SDS011;55747;51.998;4.466;2023-03-31T15:46:10;8.82;;;2.72;;
68757;SDS011;55747;51.998;4.466;2023-03-31T15:51:22;7.00;;;2.35;;
68757;SDS011;55747;51.998;4.466;2023-03-31T15:53:50;11.43;;;2.80;;
68757;SDS011;55747;51.998;4.466;2023-03-31T15:58:59;7.80;;;2.80;;
68757;SDS011;55747;51.998;4.466;2023-03-31T16:01:34;6.80;;;2.78;;
68757;SDS011;55747;51.998;4.466;2023-03-31T16:04:06;8.85;;;2.65;;
68757;SDS011;55747;51.998;4.466;2023-03-31T16:42:23;5.88;;;3.30;;
68757;SDS011;55747;51.998;4.466;2023-03-31T17:19:32;17.45;;;3.08;;
68757;SDS011;55747;51.998;4.466;2023-03-31T17:25:18;12.32;;;2.67;;
68757;SDS011;55747;51.998;4.466;2023-03-31T17:27:43;13.38;;;2.80;;
68757;SDS011;55747;51.998;4.466;2023-03-31T17:30:40;16.95;;;2.80;;
68757;SDS011;55747;51.998;4.466;2023-03-31T17:33:08;14.77;;;3.15;;
68757;SDS011;55747;51.998;4.466;2023-03-31T17:35:37;20.05;;;3.33;;
68757;SDS011;55747;51.998;4.466;2023-03-31T17:38:02;18.17;;;3.85;;
68757;SDS011;55747;51.998;4.466;2023-03-31T17:40:30;13.40;;;3.10;;
68757;SDS011;55747;51.998;4.466;2023-03-31T17:42:58;23.42;;;3.60;;
68757;SDS011;55747;51.998;4.466;2023-03-31T17:45:26;17.23;;;3.00;;
68757;SDS011;55747;51.998;4.466;2023-03-31T17:48:07;22.30;;;3.88;;
68757;SDS011;55747;51.998;4.466;2023-03-31T17:57:16;22.65;;;3.38;;
68757;SDS011;55747;51.998;4.466;2023-03-31T18:09:37;22.17;;;3.60;;
68757;SDS011;55747;51.998;4.466;2023-03-31T18:36:59;19.23;;;4.28;;
68757;SDS011;55747;51.998;4.466;2023-03-31T18:39:48;15.73;;;2.95;;
68757;SDS011;55747;51.998;4.466;2023-03-31T18:45:24;21.17;;;3.28;;
68757;SDS011;55747;51.998;4.466;2023-03-31T19:06:40;32.53;;;5.60;;
68757;SDS011;55747;51.998;4.466;2023-03-31T19:09:11;25.00;;;4.00;;
68757;SDS011;55747;51.998;4.466;2023-03-31T19:15:14;19.23;;;3.20;;
68757;SDS011;55747;51.998;4.466;2023-03-31T19:17:54;20.42;;;3.70;;
68757;SDS011;55747;51.998;4.466;2023-03-31T19:27:39;26.15;;;5.00;;
68757;SDS011;55747;51.998;4.466;2023-03-31T19:30:53;34.50;;;4.30;;
68757;SDS011;55747;51.998;4.466;2023-03-31T19:40:26;20.25;;;4.30;;
68757;SDS011;55747;51.998;4.466;2023-03-31T19:42:54;22.23;;;4.63;;
68757;SDS011;55747;51.998;4.466;2023-03-31T19:45:23;24.52;;;5.82;;
68757;SDS011;55747;51.998;4.466;2023-03-31T19:48:28;31.83;;;6.47;;
68757;SDS011;55747;51.998;4.466;2023-03-31T19:54:22;43.15;;;7.53;;
68757;SDS011;55747;51.998;4.466;2023-03-31T19:57:00;46.63;;;7.03;;
68757;SDS011;55747;51.998;4.466;2023-03-31T19:59:45;37.67;;;6.37;;
68757;SDS011;55747;51.998;4.466;2023-03-31T20:02:22;43.47;;;5.82;;
68757;SDS011;55747;51.998;4.466;2023-03-31T20:05:07;34.00;;;5.32;;
68757;SDS011;55747;51.998;4.466;2023-03-31T20:11:57;38.40;;;5.43;;
68757;SDS011;55747;51.998;4.466;2023-03-31T20:15:04;43.42;;;5.55;;
68757;SDS011;55747;51.998;4.466;2023-03-31T20:21:09;37.10;;;4.90;;
68757;SDS011;55747;51.998;4.466;2023-03-31T20:24:08;32.78;;;5.00;;
68757;SDS011;55747;51.998;4.466;2023-03-31T20:26:44;45.10;;;6.18;;
68757;SDS011;55747;51.998;4.466;2023-03-31T20:29:15;33.75;;;5.45;;
68757;SDS011;55747;51.998;4.466;2023-03-31T20:31:41;27.38;;;4.43;;
68757;SDS011;55747;51.998;4.466;2023-03-31T20:34:07;35.85;;;5.70;;
68757;SDS011;55747;51.998;4.466;2023-03-31T20:36:38;40.65;;;5.03;;
68757;SDS011;55747;51.998;4.466;2023-03-31T20:39:04;29.92;;;5.18;;
68757;SDS011;55747;51.998;4.466;2023-03-31T20:41:31;32.60;;;4.60;;
68757;SDS011;55747;51.998;4.466;2023-03-31T20:44:01;38.85;;;5.45;;
68757;SDS011;55747;51.998;4.466;2023-03-31T20:46:27;48.38;;;5.28;;
68757;SDS011;55747;51.998;4.466;2023-03-31T20:49:22;33.78;;;5.35;;
68757;SDS011;55747;51.998;4.466;2023-03-31T20:52:15;41.78;;;6.45;;
68757;SDS011;55747;51.998;4.466;2023-03-31T20:54:42;49.22;;;6.43;;
68757;SDS011;55747;51.998;4.466;2023-03-31T20:57:36;44.47;;;5.93;;
68757;SDS011;55747;51.998;4.466;2023-03-31T21:00:21;46.58;;;5.82;;
68757;SDS011;55747;51.998;4.466;2023-03-31T21:06:00;41.70;;;6.53;;